Norwood, New Jersey
Current Conditions -  °F | °C
As of 12:51 AM on Thursday 18 Dec 2014 (Local Time) from KTEB Reporting Station
Overcast Overcast  
Wind Chill: 36°   Ceiling: 4100
Heat Index: 41°   Visibility: 10mi
Dew Point: 26°   Wind: 8mph
Humidity: 55%   Direction: 280°W
Pressure: 29.88"   Gusts: NA
Location:  41°N, 73.96°W
Report Text: KTEB 180551Z 28007KT 10SM OVC041 05/M03 A2988 RMK AO2 SLP116 60000 T00501033 10078 20050 58004
Loading
Personal Weather Stations






























Interactive Weather Map New forecast layout! Learn more

10-Day Weather Forecast

Advertisements
Track Severe Weather on mobile